sensor_id;sensor_type;location;lat;lon;timestamp;temperature;humidity
31975;DHT22;18500;43.618;1.474;2023-04-21T06:45:47;12.40;1.00
31975;DHT22;18500;43.618;1.474;2023-04-21T06:48:13;12.50;1.00
31975;DHT22;18500;43.618;1.474;2023-04-21T06:50:38;12.60;1.00
31975;DHT22;18500;43.618;1.474;2023-04-21T06:53:04;12.60;1.00
31975;DHT22;18500;43.618;1.474;2023-04-21T06:55:29;12.70;1.00
31975;DHT22;18500;43.618;1.474;2023-04-21T06:57:55;12.60;1.00
31975;DHT22;18500;43.618;1.474;2023-04-21T07:00:21;12.70;1.00
31975;DHT22;18500;43.618;1.474;2023-04-21T07:02:47;12.80;1.00
31975;DHT22;18500;43.618;1.474;2023-04-21T07:05:12;12.90;1.00
31975;DHT22;18500;43.618;1.474;2023-04-21T07:07:38;13.10;1.00
31975;DHT22;18500;43.618;1.474;2023-04-21T07:10:04;13.10;1.00
31975;DHT22;18500;43.618;1.474;2023-04-21T07:12:30;13.30;1.00
31975;DHT22;18500;43.618;1.474;2023-04-21T07:14:55;13.30;1.00
31975;DHT22;18500;43.618;1.474;2023-04-21T07:17:21;13.40;1.00
31975;DHT22;18500;43.618;1.474;2023-04-21T07:19:46;13.50;1.00
31975;DHT22;18500;43.618;1.474;2023-04-21T07:22:12;13.50;1.00
31975;DHT22;18500;43.618;1.474;2023-04-21T07:24:38;13.60;1.00
31975;DHT22;18500;43.618;1.474;2023-04-21T07:27:03;13.80;1.00
31975;DHT22;18500;43.618;1.474;2023-04-21T07:29:29;13.90;1.00
31975;DHT22;18500;43.618;1.474;2023-04-21T07:31:55;14.00;1.00
31975;DHT22;18500;43.618;1.474;2023-04-21T07:34:23;14.00;1.00
31975;DHT22;18500;43.618;1.474;2023-04-21T07:36:53;14.00;1.00
31975;DHT22;18500;43.618;1.474;2023-04-21T07:39:19;14.20;1.00
31975;DHT22;18500;43.618;1.474;2023-04-21T07:41:44;14.30;1.00
31975;DHT22;18500;43.618;1.474;2023-04-21T07:44:10;14.30;1.00
31975;DHT22;18500;43.618;1.474;2023-04-21T07:46:36;14.40;1.00
31975;DHT22;18500;43.618;1.474;2023-04-21T07:49:01;14.50;1.00
31975;DHT22;18500;43.618;1.474;2023-04-21T07:51:27;14.50;1.00
31975;DHT22;18500;43.618;1.474;2023-04-21T07:53:53;14.70;1.00
31975;DHT22;18500;43.618;1.474;2023-04-21T07:56:19;14.80;1.00
31975;DHT22;18500;43.618;1.474;2023-04-21T07:58:45;14.90;1.00
31975;DHT22;18500;43.618;1.474;2023-04-21T08:01:10;14.90;1.00
31975;DHT22;18500;43.618;1.474;2023-04-21T08:03:36;15.00;1.00
31975;DHT22;18500;43.618;1.474;2023-04-21T08:06:02;15.10;1.00
31975;DHT22;18500;43.618;1.474;2023-04-21T08:08:27;15.10;1.00
31975;DHT22;18500;43.618;1.474;2023-04-21T08:10:53;15.20;1.00
31975;DHT22;18500;43.618;1.474;2023-04-21T08:13:19;15.30;1.00
31975;DHT22;18500;43.618;1.474;2023-04-21T08:15:49;15.40;1.00
31975;DHT22;18500;43.618;1.474;2023-04-21T08:18:15;15.70;1.00
31975;DHT22;18500;43.618;1.474;2023-04-21T08:20:43;15.70;1.00
31975;DHT22;18500;43.618;1.474;2023-04-21T08:23:09;15.70;1.00
31975;DHT22;18500;43.618;1.474;2023-04-21T08:25:35;15.80;1.00
31975;DHT22;18500;43.618;1.474;2023-04-21T08:28:01;15.90;1.00
31975;DHT22;18500;43.618;1.474;2023-04-21T08:30:27;16.20;1.00
31975;DHT22;18500;43.618;1.474;2023-04-21T08:32:53;16.10;1.00
31975;DHT22;18500;43.618;1.474;2023-04-21T08:35:18;16.00;1.00
31975;DHT22;18500;43.618;1.474;2023-04-21T08:37:44;16.00;1.00
31975;DHT22;18500;43.618;1.474;2023-04-21T08:40:11;16.00;1.00
31975;DHT22;18500;43.618;1.474;2023-04-21T08:42:37;16.10;1.00
31975;DHT22;18500;43.618;1.474;2023-04-21T08:45:04;16.30;1.00
31975;DHT22;18500;43.618;1.474;2023-04-21T08:47:31;16.40;1.00
31975;DHT22;18500;43.618;1.474;2023-04-21T08:49:58;16.40;1.00
31975;DHT22;18500;43.618;1.474;2023-04-21T08:52:24;16.30;1.00
31975;DHT22;18500;43.618;1.474;2023-04-21T08:54:50;16.50;1.00
31975;DHT22;18500;43.618;1.474;2023-04-21T08:57:18;16.60;1.00
31975;DHT22;18500;43.618;1.474;2023-04-21T08:59:44;16.60;1.00
31975;DHT22;18500;43.618;1.474;2023-04-21T09:04:44;16.70;1.00
31975;DHT22;18500;43.618;1.474;2023-04-21T09:07:11;16.70;1.00
31975;DHT22;18500;43.618;1.474;2023-04-21T09:09:54;16.90;1.00
31975;DHT22;18500;43.618;1.474;2023-04-21T09:12:20;16.90;1.00
31975;DHT22;18500;43.618;1.474;2023-04-21T09:14:46;17.00;1.00
31975;DHT22;18500;43.618;1.474;2023-04-21T09:17:13;16.90;1.00
31975;DHT22;18500;43.618;1.474;2023-04-21T09:19:39;16.90;1.00
31975;DHT22;18500;43.618;1.474;2023-04-21T09:22:05;17.00;1.00
31975;DHT22;18500;43.618;1.474;2023-04-21T09:24:31;17.10;1.00
31975;DHT22;18500;43.618;1.474;2023-04-21T09:26:56;17.20;1.00
31975;DHT22;18500;43.618;1.474;2023-04-21T09:29:23;17.30;1.00
31975;DHT22;18500;43.618;1.474;2023-04-21T09:31:50;17.60;1.00
31975;DHT22;18500;43.618;1.474;2023-04-21T09:34:21;17.70;1.00
31975;DHT22;18500;43.618;1.474;2023-04-21T09:37:01;17.80;1.00
31975;DHT22;18500;43.618;1.474;2023-04-21T09:39:31;17.90;1.00
31975;DHT22;18500;43.618;1.474;2023-04-21T09:41:58;17.90;1.00
31975;DHT22;18500;43.618;1.474;2023-04-21T09:44:24;17.80;1.00
31975;DHT22;18500;43.618;1.474;2023-04-21T09:46:54;17.70;1.00
31975;DHT22;18500;43.618;1.474;2023-04-21T09:49:22;17.80;1.00
31975;DHT22;18500;43.618;1.474;2023-04-21T09:51:49;17.90;1.00
31975;DHT22;18500;43.618;1.474;2023-04-21T09:54:17;17.90;1.00
31975;DHT22;18500;43.618;1.474;2023-04-21T09:56:52;17.90;1.00
31975;DHT22;18500;43.618;1.474;2023-04-21T09:59:27;18.00;1.00
31975;DHT22;18500;43.618;1.474;2023-04-21T10:01:54;18.00;1.00
31975;DHT22;18500;43.618;1.474;2023-04-21T10:04:22;18.00;1.00
31975;DHT22;18500;43.618;1.474;2023-04-21T10:06:50;18.10;1.00
31975;DHT22;18500;43.618;1.474;2023-04-21T10:09:17;18.10;1.00
31975;DHT22;18500;43.618;1.474;2023-04-21T10:11:45;18.20;1.00
31975;DHT22;18500;43.618;1.474;2023-04-21T10:14:12;18.30;1.00
31975;DHT22;18500;43.618;1.474;2023-04-21T10:16:37;18.50;1.00
31975;DHT22;18500;43.618;1.474;2023-04-21T10:19:28;18.50;1.00
31975;DHT22;18500;43.618;1.474;2023-04-21T10:21:56;18.70;1.00
31975;DHT22;18500;43.618;1.474;2023-04-21T10:24:22;18.60;1.00
31975;DHT22;18500;43.618;1.474;2023-04-21T10:26:50;18.70;1.00
31975;DHT22;18500;43.618;1.474;2023-04-21T10:29:16;18.90;1.00
31975;DHT22;18500;43.618;1.474;2023-04-21T10:31:52;19.00;1.00
31975;DHT22;18500;43.618;1.474;2023-04-21T10:34:28;19.00;1.00
31975;DHT22;18500;43.618;1.474;2023-04-21T10:47:24;19.50;1.00
31975;DHT22;18500;43.618;1.474;2023-04-21T10:49:51;19.60;1.00
31975;DHT22;18500;43.618;1.474;2023-04-21T10:52:18;19.80;1.00
31975;DHT22;18500;43.618;1.474;2023-04-21T10:57:15;19.70;1.00
31975;DHT22;18500;43.618;1.474;2023-04-21T10:59:42;19.70;1.00
31975;DHT22;18500;43.618;1.474;2023-04-21T11:02:13;19.90;1.00
31975;DHT22;18500;43.618;1.474;2023-04-21T11:04:39;20.10;1.00
31975;DHT22;18500;43.618;1.474;2023-04-21T11:07:17;20.20;1.00
31975;DHT22;18500;43.618;1.474;2023-04-21T11:09:44;20.00;1.00
31975;DHT22;18500;43.618;1.474;2023-04-21T11:12:13;20.10;1.00
31975;DHT22;18500;43.618;1.474;2023-04-21T11:14:41;20.30;1.00
31975;DHT22;18500;43.618;1.474;2023-04-21T11:17:15;20.30;1.00
31975;DHT22;18500;43.618;1.474;2023-04-21T11:19:44;20.50;1.00
31975;DHT22;18500;43.618;1.474;2023-04-21T11:22:10;20.50;1.00
31975;DHT22;18500;43.618;1.474;2023-04-21T11:24:35;20.50;1.00
31975;DHT22;18500;43.618;1.474;2023-04-21T11:27:01;20.70;1.00
31975;DHT22;18500;43.618;1.474;2023-04-21T11:29:27;20.90;1.00
31975;DHT22;18500;43.618;1.474;2023-04-21T11:31:56;20.70;1.00
31975;DHT22;18500;43.618;1.474;2023-04-21T11:34:25;20.70;1.00
31975;DHT22;18500;43.618;1.474;2023-04-21T11:36:52;20.70;1.00
31975;DHT22;18500;43.618;1.474;2023-04-21T11:39:18;20.70;1.00
31975;DHT22;18500;43.618;1.474;2023-04-21T11:41:48;20.80;1.00
31975;DHT22;18500;43.618;1.474;2023-04-21T11:46:55;21.10;1.00
31975;DHT22;18500;43.618;1.474;2023-04-21T11:49:24;21.20;1.00
31975;DHT22;18500;43.618;1.474;2023-04-21T11:51:50;21.20;1.00
31975;DHT22;18500;43.618;1.474;2023-04-21T11:54:17;21.20;1.00
31975;DHT22;18500;43.618;1.474;2023-04-21T11:56:47;21.20;1.00
31975;DHT22;18500;43.618;1.474;2023-04-21T11:59:14;21.30;1.00
31975;DHT22;18500;43.618;1.474;2023-04-21T12:01:48;21.40;1.00
31975;DHT22;18500;43.618;1.474;2023-04-21T12:04:22;21.70;1.00
31975;DHT22;18500;43.618;1.474;2023-04-21T12:06:57;21.80;1.00
31975;DHT22;18500;43.618;1.474;2023-04-21T12:09:23;21.90;1.00
31975;DHT22;18500;43.618;1.474;2023-04-21T12:11:54;21.80;1.00
31975;DHT22;18500;43.618;1.474;2023-04-21T12:14:21;21.90;1.00
31975;DHT22;18500;43.618;1.474;2023-04-21T12:16:48;21.90;1.00
31975;DHT22;18500;43.618;1.474;2023-04-21T12:22:00;22.20;1.00
31975;DHT22;18500;43.618;1.474;2023-04-21T12:24:26;22.30;1.00
31975;DHT22;18500;43.618;1.474;2023-04-21T12:26:53;22.20;1.00
31975;DHT22;18500;43.618;1.474;2023-04-21T12:29:18;22.30;1.00
31975;DHT22;18500;43.618;1.474;2023-04-21T12:31:44;22.40;1.00
31975;DHT22;18500;43.618;1.474;2023-04-21T12:34:10;26.80;1.00
31975;DHT22;18500;43.618;1.474;2023-04-21T12:36:35;29.90;1.00
31975;DHT22;18500;43.618;1.474;2023-04-21T12:39:01;32.70;1.00
31975;DHT22;18500;43.618;1.474;2023-04-21T12:41:27;32.80;1.00
31975;DHT22;18500;43.618;1.474;2023-04-21T12:43:52;32.10;1.00
31975;DHT22;18500;43.618;1.474;2023-04-21T12:46:18;32.30;1.00
31975;DHT22;18500;43.618;1.474;2023-04-21T12:48:44;32.80;1.00
31975;DHT22;18500;43.618;1.474;2023-04-21T12:51:09;33.00;1.00
31975;DHT22;18500;43.618;1.474;2023-04-21T12:53:35;33.80;1.00
31975;DHT22;18500;43.618;1.474;2023-04-21T12:56:02;34.90;99.90
31975;DHT22;18500;43.618;1.474;2023-04-21T12:58:27;35.70;99.90
31975;DHT22;18500;43.618;1.474;2023-04-21T13:00:53;34.70;99.90
31975;DHT22;18500;43.618;1.474;2023-04-21T13:03:20;35.70;99.90
31975;DHT22;18500;43.618;1.474;2023-04-21T13:05:45;35.30;99.90
31975;DHT22;18500;43.618;1.474;2023-04-21T13:08:11;34.60;99.90
31975;DHT22;18500;43.618;1.474;2023-04-21T13:10:37;35.00;99.90
31975;DHT22;18500;43.618;1.474;2023-04-21T13:13:02;35.20;99.90
31975;DHT22;18500;43.618;1.474;2023-04-21T13:15:28;34.80;99.90
31975;DHT22;18500;43.618;1.474;2023-04-21T13:17:54;34.00;99.90
31975;DHT22;18500;43.618;1.474;2023-04-21T13:20:20;33.40;99.90
31975;DHT22;18500;43.618;1.474;2023-04-21T13:22:46;35.00;99.90
31975;DHT22;18500;43.618;1.474;2023-04-21T13:25:12;35.30;99.90
31975;DHT22;18500;43.618;1.474;2023-04-21T13:27:38;34.60;99.90
31975;DHT22;18500;43.618;1.474;2023-04-21T13:30:09;34.40;99.90
31975;DHT22;18500;43.618;1.474;2023-04-21T13:32:36;32.80;99.90
31975;DHT22;18500;43.618;1.474;2023-04-21T13:35:03;33.40;99.90
31975;DHT22;18500;43.618;1.474;2023-04-21T13:37:38;34.80;99.90
31975;DHT22;18500;43.618;1.474;2023-04-21T13:40:05;34.90;99.90
31975;DHT22;18500;43.618;1.474;2023-04-21T13:42:33;34.50;99.90
31975;DHT22;18500;43.618;1.474;2023-04-21T13:44:59;34.80;99.90
31975;DHT22;18500;43.618;1.474;2023-04-21T13:47:28;36.20;99.90
31975;DHT22;18500;43.618;1.474;2023-04-21T13:49:55;35.50;99.90
31975;DHT22;18500;43.618;1.474;2023-04-21T13:52:20;35.90;99.90
31975;DHT22;18500;43.618;1.474;2023-04-21T13:54:46;35.40;99.90
31975;DHT22;18500;43.618;1.474;2023-04-21T13:57:11;35.20;99.90
31975;DHT22;18500;43.618;1.474;2023-04-21T13:59:37;35.20;99.90
31975;DHT22;18500;43.618;1.474;2023-04-21T14:02:03;34.40;99.90
31975;DHT22;18500;43.618;1.474;2023-04-21T14:04:29;34.40;99.90
31975;DHT22;18500;43.618;1.474;2023-04-21T14:06:54;34.50;99.90
31975;DHT22;18500;43.618;1.474;2023-04-21T14:09:20;34.20;99.90
31975;DHT22;18500;43.618;1.474;2023-04-21T14:11:46;33.50;99.90
31975;DHT22;18500;43.618;1.474;2023-04-21T14:14:12;34.40;99.90
31975;DHT22;18500;43.618;1.474;2023-04-21T14:16:37;33.50;99.90
31975;DHT22;18500;43.618;1.474;2023-04-21T14:19:03;33.10;99.90
31975;DHT22;18500;43.618;1.474;2023-04-21T14:21:29;32.60;99.90
31975;DHT22;18500;43.618;1.474;2023-04-21T14:23:56;29.60;99.90
31975;DHT22;18500;43.618;1.474;2023-04-21T14:26:21;27.20;99.90
31975;DHT22;18500;43.618;1.474;2023-04-21T14:28:48;26.10;99.90
31975;DHT22;18500;43.618;1.474;2023-04-21T14:31:14;25.40;1.00
31975;DHT22;18500;43.618;1.474;2023-04-21T14:33:39;24.30;1.00
31975;DHT22;18500;43.618;1.474;2023-04-21T14:36:06;23.90;1.00
31975;DHT22;18500;43.618;1.474;2023-04-21T14:38:32;23.60;1.00
31975;DHT22;18500;43.618;1.474;2023-04-21T14:40:58;23.40;1.00
31975;DHT22;18500;43.618;1.474;2023-04-21T14:43:24;23.20;1.00
31975;DHT22;18500;43.618;1.474;2023-04-21T14:45:49;23.20;1.00
31975;DHT22;18500;43.618;1.474;2023-04-21T14:48:15;23.00;1.00
31975;DHT22;18500;43.618;1.474;2023-04-21T14:50:41;22.60;1.00
31975;DHT22;18500;43.618;1.474;2023-04-21T14:53:06;22.70;1.00
31975;DHT22;18500;43.618;1.474;2023-04-21T14:55:32;22.60;1.00
31975;DHT22;18500;43.618;1.474;2023-04-21T14:57:58;22.40;1.00
31975;DHT22;18500;43.618;1.474;2023-04-21T15:00:24;22.30;1.00
31975;DHT22;18500;43.618;1.474;2023-04-21T15:02:50;21.90;1.00
31975;DHT22;18500;43.618;1.474;2023-04-21T15:05:17;21.90;1.00
31975;DHT22;18500;43.618;1.474;2023-04-21T15:07:43;21.80;1.00
31975;DHT22;18500;43.618;1.474;2023-04-21T15:10:09;21.60;1.00
31975;DHT22;18500;43.618;1.474;2023-04-21T15:12:38;21.50;1.00
31975;DHT22;18500;43.618;1.474;2023-04-21T15:15:05;21.40;1.00
31975;DHT22;18500;43.618;1.474;2023-04-21T15:17:31;21.30;1.00
31975;DHT22;18500;43.618;1.474;2023-04-21T15:19:57;21.20;1.00
31975;DHT22;18500;43.618;1.474;2023-04-21T15:22:22;21.20;1.00
31975;DHT22;18500;43.618;1.474;2023-04-21T15:24:48;21.30;1.00
31975;DHT22;18500;43.618;1.474;2023-04-21T15:27:14;21.30;1.00
31975;DHT22;18500;43.618;1.474;2023-04-21T15:29:40;21.30;1.00
31975;DHT22;18500;43.618;1.474;2023-04-21T15:32:06;21.40;1.00
31975;DHT22;18500;43.618;1.474;2023-04-21T15:34:31;21.30;1.00
31975;DHT22;18500;43.618;1.474;2023-04-21T15:36:57;21.10;1.00
31975;DHT22;18500;43.618;1.474;2023-04-21T15:39:23;21.00;1.00
31975;DHT22;18500;43.618;1.474;2023-04-21T15:41:48;21.10;1.00
31975;DHT22;18500;43.618;1.474;2023-04-21T15:44:14;20.90;1.00
31975;DHT22;18500;43.618;1.474;2023-04-21T15:46:40;20.90;1.00
31975;DHT22;18500;43.618;1.474;2023-04-21T15:49:06;20.80;1.00
31975;DHT22;18500;43.618;1.474;2023-04-21T15:51:33;20.80;1.00
31975;DHT22;18500;43.618;1.474;2023-04-21T15:53:59;20.80;1.00
31975;DHT22;18500;43.618;1.474;2023-04-21T15:56:24;20.70;1.00
31975;DHT22;18500;43.618;1.474;2023-04-21T15:58:50;20.60;1.00
31975;DHT22;18500;43.618;1.474;2023-04-21T16:01:16;20.60;1.00
31975;DHT22;18500;43.618;1.474;2023-04-21T16:03:42;20.60;1.00
31975;DHT22;18500;43.618;1.474;2023-04-21T16:06:08;20.50;1.00
31975;DHT22;18500;43.618;1.474;2023-04-21T16:08:33;20.50;1.00
31975;DHT22;18500;43.618;1.474;2023-04-21T16:10:59;20.40;1.00
31975;DHT22;18500;43.618;1.474;2023-04-21T16:13:25;20.30;1.00
31975;DHT22;18500;43.618;1.474;2023-04-21T16:15:51;20.30;1.00
31975;DHT22;18500;43.618;1.474;2023-04-21T16:18:17;20.20;1.00
31975;DHT22;18500;43.618;1.474;2023-04-21T16:20:42;20.00;1.00
31975;DHT22;18500;43.618;1.474;2023-04-21T16:23:13;19.90;1.00
31975;DHT22;18500;43.618;1.474;2023-04-21T16:25:39;20.00;1.00
31975;DHT22;18500;43.618;1.474;2023-04-21T16:28:05;19.80;1.00
31975;DHT22;18500;43.618;1.474;2023-04-21T16:30:32;19.90;1.00
31975;DHT22;18500;43.618;1.474;2023-04-21T16:32:59;19.70;1.00
31975;DHT22;18500;43.618;1.474;2023-04-21T16:35:25;19.60;1.00
31975;DHT22;18500;43.618;1.474;2023-04-21T16:37:50;19.50;1.00
31975;DHT22;18500;43.618;1.474;2023-04-21T16:40:16;19.40;1.00
31975;DHT22;18500;43.618;1.474;2023-04-21T16:42:42;19.40;1.00
31975;DHT22;18500;43.618;1.474;2023-04-21T16:45:08;19.40;1.00
31975;DHT22;18500;43.618;1.474;2023-04-21T16:47:35;19.20;1.00
31975;DHT22;18500;43.618;1.474;2023-04-21T16:50:03;19.00;1.00
31975;DHT22;18500;43.618;1.474;2023-04-21T16:52:29;18.90;1.00
31975;DHT22;18500;43.618;1.474;2023-04-21T16:54:54;18.70;1.00
31975;DHT22;18500;43.618;1.474;2023-04-21T16:57:20;18.60;1.00
31975;DHT22;18500;43.618;1.474;2023-04-21T16:59:49;18.40;1.00
31975;DHT22;18500;43.618;1.474;2023-04-21T17:02:16;18.50;1.00
31975;DHT22;18500;43.618;1.474;2023-04-21T17:04:42;18.30;1.00
31975;DHT22;18500;43.618;1.474;2023-04-21T17:07:08;18.40;1.00
31975;DHT22;18500;43.618;1.474;2023-04-21T17:09:33;18.40;1.00
31975;DHT22;18500;43.618;1.474;2023-04-21T17:12:00;18.30;1.00
31975;DHT22;18500;43.618;1.474;2023-04-21T17:14:27;18.30;1.00
31975;DHT22;18500;43.618;1.474;2023-04-21T17:16:53;18.20;1.00
31975;DHT22;18500;43.618;1.474;2023-04-21T17:19:20;18.10;1.00
31975;DHT22;18500;43.618;1.474;2023-04-21T17:21:46;18.20;1.00
31975;DHT22;18500;43.618;1.474;2023-04-21T17:24:11;18.10;1.00
31975;DHT22;18500;43.618;1.474;2023-04-21T17:26:37;18.00;1.00
31975;DHT22;18500;43.618;1.474;2023-04-21T17:29:03;18.00;1.00
31975;DHT22;18500;43.618;1.474;2023-04-21T17:31:31;17.90;1.00
31975;DHT22;18500;43.618;1.474;2023-04-21T17:33:58;17.80;1.00
31975;DHT22;18500;43.618;1.474;2023-04-21T17:36:26;17.70;1.00
31975;DHT22;18500;43.618;1.474;2023-04-21T17:38:54;17.70;1.00
31975;DHT22;18500;43.618;1.474;2023-04-21T17:41:20;17.60;1.00
31975;DHT22;18500;43.618;1.474;2023-04-21T17:43:46;17.60;1.00
31975;DHT22;18500;43.618;1.474;2023-04-21T17:46:11;17.50;1.00
31975;DHT22;18500;43.618;1.474;2023-04-21T17:48:37;17.40;1.00
31975;DHT22;18500;43.618;1.474;2023-04-21T17:51:03;17.30;1.00
31975;DHT22;18500;43.618;1.474;2023-04-21T17:53:29;17.20;1.00
31975;DHT22;18500;43.618;1.474;2023-04-21T17:55:55;17.10;1.00
31975;DHT22;18500;43.618;1.474;2023-04-21T17:58:21;17.10;1.00
31975;DHT22;18500;43.618;1.474;2023-04-21T18:00:47;17.00;1.00
31975;DHT22;18500;43.618;1.474;2023-04-21T18:03:13;17.00;1.00
31975;DHT22;18500;43.618;1.474;2023-04-21T18:05:39;16.80;1.00
31975;DHT22;18500;43.618;1.474;2023-04-21T18:08:05;16.80;1.00
31975;DHT22;18500;43.618;1.474;2023-04-21T18:10:30;16.70;1.00
31975;DHT22;18500;43.618;1.474;2023-04-21T18:12:56;16.70;1.00
31975;DHT22;18500;43.618;1.474;2023-04-21T18:15:22;16.60;1.00
31975;DHT22;18500;43.618;1.474;2023-04-21T18:17:48;16.50;1.00
31975;DHT22;18500;43.618;1.474;2023-04-21T18:20:14;16.40;1.00
31975;DHT22;18500;43.618;1.474;2023-04-21T18:22:41;16.40;1.00
31975;DHT22;18500;43.618;1.474;2023-04-21T18:25:08;16.30;1.00
31975;DHT22;18500;43.618;1.474;2023-04-21T18:27:34;16.20;1.00
31975;DHT22;18500;43.618;1.474;2023-04-21T18:30:00;16.20;1.00
31975;DHT22;18500;43.618;1.474;2023-04-21T18:32:26;16.10;1.00
31975;DHT22;18500;43.618;1.474;2023-04-21T18:34:51;16.00;1.00
31975;DHT22;18500;43.618;1.474;2023-04-21T18:37:17;16.00;1.00
31975;DHT22;18500;43.618;1.474;2023-04-21T18:39:43;16.00;1.00
31975;DHT22;18500;43.618;1.474;2023-04-21T18:42:08;15.90;1.00
31975;DHT22;18500;43.618;1.474;2023-04-21T18:44:34;15.80;1.00
31975;DHT22;18500;43.618;1.474;2023-04-21T18:47:00;15.80;1.00
31975;DHT22;18500;43.618;1.474;2023-04-21T18:49:26;15.70;1.00
31975;DHT22;18500;43.618;1.474;2023-04-21T18:51:52;15.70;1.00
31975;DHT22;18500;43.618;1.474;2023-04-21T18:54:17;15.60;1.00
31975;DHT22;18500;43.618;1.474;2023-04-21T18:56:43;15.60;1.00
31975;DHT22;18500;43.618;1.474;2023-04-21T18:59:10;15.50;1.00
31975;DHT22;18500;43.618;1.474;2023-04-21T19:01:35;15.50;1.00
31975;DHT22;18500;43.618;1.474;2023-04-21T19:04:01;15.40;1.00
31975;DHT22;18500;43.618;1.474;2023-04-21T19:06:27;15.40;1.00
31975;DHT22;18500;43.618;1.474;2023-04-21T19:08:53;15.30;1.00
31975;DHT22;18500;43.618;1.474;2023-04-21T19:11:19;15.30;1.00
31975;DHT22;18500;43.618;1.474;2023-04-21T19:13:45;15.30;1.00
31975;DHT22;18500;43.618;1.474;2023-04-21T19:16:12;15.30;1.00
31975;DHT22;18500;43.618;1.474;2023-04-21T19:18:39;15.20;1.00
31975;DHT22;18500;43.618;1.474;2023-04-21T19:21:05;15.10;1.00
31975;DHT22;18500;43.618;1.474;2023-04-21T19:23:34;15.10;1.00
31975;DHT22;18500;43.618;1.474;2023-04-21T19:26:00;15.10;1.00
31975;DHT22;18500;43.618;1.474;2023-04-21T19:28:30;15.10;1.00
31975;DHT22;18500;43.618;1.474;2023-04-21T19:30:56;15.00;1.00
31975;DHT22;18500;43.618;1.474;2023-04-21T19:33:21;15.00;1.00
31975;DHT22;18500;43.618;1.474;2023-04-21T19:35:47;15.00;1.00
31975;DHT22;18500;43.618;1.474;2023-04-21T19:38:13;15.00;1.00
31975;DHT22;18500;43.618;1.474;2023-04-21T19:40:39;15.00;1.00
31975;DHT22;18500;43.618;1.474;2023-04-21T19:43:08;15.00;1.00
31975;DHT22;18500;43.618;1.474;2023-04-21T19:45:34;14.90;1.00
31975;DHT22;18500;43.618;1.474;2023-04-21T19:48:00;14.90;1.00
31975;DHT22;18500;43.618;1.474;2023-04-21T19:50:26;14.90;1.00
31975;DHT22;18500;43.618;1.474;2023-04-21T19:52:51;14.90;1.00
31975;DHT22;18500;43.618;1.474;2023-04-21T19:55:17;14.90;1.00
31975;DHT22;18500;43.618;1.474;2023-04-21T19:57:43;14.80;1.00
31975;DHT22;18500;43.618;1.474;2023-04-21T20:00:09;14.80;1.00
31975;DHT22;18500;43.618;1.474;2023-04-21T20:02:35;14.80;1.00
31975;DHT22;18500;43.618;1.474;2023-04-21T20:05:01;14.80;1.00
31975;DHT22;18500;43.618;1.474;2023-04-21T20:07:27;14.80;1.00
31975;DHT22;18500;43.618;1.474;2023-04-21T20:09:52;14.80;1.00
31975;DHT22;18500;43.618;1.474;2023-04-21T20:12:18;14.70;1.00
31975;DHT22;18500;43.618;1.474;2023-04-21T20:14:44;14.70;1.00
